Weather observations for the past three days for
Aitkin Municipal Airport - Steve Kurtz Field
Metric (Imperial)
Date Time (cdt) Wind (kph) Vis. (km) Weather Sky Cond. Temperature (ºC) Relative Humidity Wind Chill (°C) Heat Index (°C) Pressure Precipitation (cm)
Air Dwpt 6 hour altimeter (cm) sea level (mb) 1 hr 3 hr 6 hr
Max. Min.
05 12:15 SE 9 16.09 Overcast OVC008 20.1 18 88% 76.43 0.0
05 11:55 SE 9 16.09 Overcast OVC007 19.7 18.1 91% 76.43 0.0
05 11:35 S 7 16.09 Overcast OVC007 19.5 18.1 92% 76.48 0.0
05 11:15 S 9 14.48 Overcast OVC007 19.3 18 92% 76.45 0.0
05 10:55 Vrbl 6 12.87 Overcast OVC006 19.2 18 93% 76.48 0.0
05 10:35 SE 9 16.09 Overcast OVC006 19 17.7 92% 76.43 0.0
05 10:15 SE 9 16.09 Overcast OVC006 18.8 17.6 93% 76.4 0.0
05 09:55 SE 9 14.48 Overcast OVC006 18.5 17.4 93% 76.4 0.0
05 09:35 E 9 16.09 Overcast OVC006 18.3 17.1 93% 76.4 0.0
05 09:15 SE 6 14.48 Overcast OVC005 17.9 17.1 95% 76.43 0.0
05 08:55 Vrbl 6 12.87 Overcast OVC004 17.6 17.1 97% 76.4 0.0
05 08:35 Calm 9.66 Fog/Mist OVC004 17.4 17.2 99% 76.4 0.0
05 08:15 Calm 6.44 Fog/Mist OVC004 17 16.8 99% 76.38 0.0
05 07:55 Vrbl 6 9.66 Fog/Mist OVC005 16.7 16.7 100% 76.35 0.0
05 07:35 E 7 6.44 Fog/Mist OVC005 16.4 16.4 100% 76.35 0.0
05 07:15 Calm 8.05 Fog/Mist OVC006 16.4 16.3 99% 76.35 0.0
05 06:55 E 6 12.87 Overcast OVC004 16.4 16.2 17.1 16.2 99% 76.35 0.0
05 06:35 E 7 12.87 Overcast OVC004 16.3 16.1 99% 76.35 0.0
05 06:15 SE 7 11.27 Overcast OVC004 16.3 16.3 100% 76.35 0.0
05 05:55 E 9 12.87 Overcast OVC003 16.3 16.1 99% 76.3 0.0
05 05:35 SE 13 12.87 Overcast OVC003 16.3 16.3 100% 76.25 0.0
05 05:15 E 13 9.66 Fog/Mist OVC003 16.3 16.3 100% 76.23 0.0
05 04:55 E 9 11.27 Overcast OVC003 16.3 16.3 100% 76.23 0.0
05 04:35 E 7 9.66 Fog/Mist OVC002 16.3 16.3 100% 76.25 0.0
05 04:15 E 11 11.27 Overcast OVC003 16.4 16.4 100% 76.28 0.0
05 03:55 E 9 12.87 Overcast OVC004 16.7 16.4 98% 76.3 0.0
05 03:35 Vrbl 9 14.48 Overcast OVC004 16.6 16.4 99% 76.3 0.0
05 03:15 E 7 14.48 Overcast OVC004 16.8 16.4 98% 76.3 0.0
05 02:55 E 9 14.48 Overcast OVC004 16.7 16.3 98% 76.3 0.0
05 02:35 E 6 16.09 Overcast OVC004 16.8 16.5 98% 76.3 0.0
05 02:15 E 7 16.09 Overcast OVC004 16.8 16.4 98% 76.3 0.0
05 01:55 E 9 16.09 Overcast OVC005 17 16.4 96% 76.28 0.0
05 01:35 E 6 16.09 Overcast OVC005 17.1 16.5 96% 76.28 0.0
05 01:15 Calm 16.09 Overcast OVC006 17.1 16.5 96% 76.28 0.0
05 00:55 E 7 16.09 Overcast OVC005 17.2 16.6 20.9 17.2 96% 76.3 0.0
05 00:35 E 7 14.48 Overcast OVC007 17.3 16.6 96% 76.3 0.0
05 00:15 E 6 16.09 Overcast SCT008 OVC016 17.4 16.7 96% 76.3 0.0
04 23:55 E 7 16.09 Overcast FEW007 OVC015 17.7 16.8 95% 76.33 0.0
04 23:35 NE 6 16.09 Overcast OVC014 17.8 16.8 94% 76.33 0.0
04 23:15 E 7 16.09 Overcast OVC014 18 16.9 93% 76.3 0.0
04 22:55 Calm 16.09 Overcast OVC014 18.1 17 93% 76.3 0.0
04 22:35 E 6 16.09 Overcast OVC014 18.3 17 92% 76.3 0.0
04 22:15 E 11 16.09 Overcast FEW008 OVC014 18.3 17 92% 76.3 0.0
04 21:55 E 9 16.09 Overcast OVC014 18.7 17.6 93% 76.25 0.0
04 21:35 E 11 16.09 Overcast OVC014 18.9 17.6 92% 76.25 0.0
04 21:15 E 11 16.09 Overcast OVC014 19.5 18.1 92% 76.25 0.0
04 20:55 E 9 16.09 Overcast OVC015 19.9 18.2 90% 76.25 0.0
04 20:35 E 11 16.09 Overcast OVC016 20.1 18.4 90% 76.23 0.0
04 20:15 E 6 16.09 Overcast OVC015 20.3 18.3 88% 76.2 0.0
04 19:55 NE 7 16.09 Overcast OVC015 20.4 18 86% 76.2 0.0
04 19:35 NE 6 14.48 Overcast OVC014 20.5 18.1 86% 76.2 0.0
04 19:15 NE 6 16.09 Overcast OVC017 20.7 17.8 84% 76.2 0.0
04 18:55 NE 9 16.09 Overcast OVC015 20.8 18.1 22.9 19.5 85% 76.2 0.0
04 18:35 NE 6 16.09 Overcast OVC015 20.8 18 84% 76.2 0.0
04 18:15 Vrbl 6 16.09 Overcast OVC015 20.9 18 84% 76.17 0.0
04 17:55 E 9 16.09 Overcast OVC014 20.8 17.7 83% 76.17 0.0
04 17:35 NE 9 16.09 Overcast OVC013 20.7 17.7 83% 76.17 0.0
04 17:15 NE 9 16.09 Overcast OVC014 20.6 17.5 83% 76.17 0.0
04 16:55 NE 11 16.09 Overcast OVC014 21.1 17.9 82% 76.17 0.0
04 16:35 Vrbl 9 16.09 Mostly Cloudy BKN015 21.3 17.9 81% 76.15 0.0
04 16:15 NE 15 16.09 Mostly Cloudy BKN017 21.9 17.8 78% 76.15 0.0
04 15:55 NE 11 16.09 Mostly Cloudy BKN017 22.1 18 78% 76.12 0.0
04 15:35 NE 13 16.09 Mostly Cloudy BKN017 22.4 18.2 77% 76.12 0.0
04 15:15 E 13 16.09 Mostly Cloudy BKN017 22.8 18.3 76% 76.12 0.0
04 14:55 N 9 16.09 Mostly Cloudy BKN015 22.4 18 76% 76.12 0.0
04 14:35 NE 11 16.09 Mostly Cloudy BKN014 21.9 18.1 79% 76.12 0.0
04 14:15 N 9 16.09 Overcast OVC012 21.3 18.2 83% 76.12 0.0
04 13:55 Calm 16.09 Overcast OVC010 20.8 18.1 85% 76.15 0.0
04 13:35 NE 7 16.09 Overcast OVC009 20.4 18 86% 76.15 0.0
04 13:15 Vrbl 7 16.09 Overcast OVC008 19.9 17.9 88% 76.15 0.0
04 12:55 NE 13 16.09 Overcast OVC008 19.5 17.9 19.7 16.2 91% 76.12 0.0
04 12:35 E 9 16.09 Overcast OVC008 19.5 18 91% 76.12 0.0
04 12:15 NE 11 16.09 Overcast OVC006 19.3 17.7 91% 76.12 0.0
04 11:55 NE 11 16.09 Overcast OVC005 18.8 17.7 93% 76.12 0.0
04 11:35 NE 7 16.09 Overcast OVC005 18.3 17.4 95% 76.12 0.0
04 11:15 N 11 16.09 Overcast OVC005 18.3 17.5 95% 76.1 0.0
04 10:55 NE 9 14.48 Overcast OVC004 17.6 17.1 97% 76.1 0.0
04 10:35 E 7 12.87 Overcast OVC004 17.2 17 99% 76.1 0.0
04 10:15 E 9 12.87 Overcast OVC004 17.2 16.9 98% 76.07 0.0
04 09:55 NE 7 11.27 Overcast OVC003 16.8 16.8 100% 76.05 0.0
04 09:35 NE 7 3.22 Fog/Mist OVC002 16.7 16.7 100% 76.05 0.0
04 09:15 NE 11 1.61 Fog/Mist VV002 16.7 16.7 100% 76.05 0.0
04 08:55 NE 11 0.80 Fog VV002 16.7 16.7 100% 76.02 0.0
04 08:35 NE 9 0.80 Fog VV002 16.7 16.7 100% 76.02 0.0
04 08:15 NE 11 0.80 Fog VV002 16.8 16.8 100% 76 0.0
04 07:55 NE 6 0.40 Fog VV002 16.5 16.5 100% 75.95 0.0
04 07:35 NE 6 0.40 Fog VV002 16.4 16.4 100% 75.95 0.0
04 07:15 Calm 0.24 Fog VV002 16.3 16.3 100% 75.92 0.0
04 06:55 SE 7 0.40 Fog VV002 16.2 16.2 18 14.6 100% 75.87 0.0
04 06:35 E 6 1.61 Fog/Mist VV002 16.2 16.2 100% 75.87 0.0
04 06:15 SE 6 1.61 Fog/Mist VV003 15.8 15.8 100% 75.84 0.0
04 05:55 N 6 1.61 Fog/Mist CLR 14.7 14.7 100% 75.87 0.0
04 05:35 Calm 11.27 Fair CLR 15.4 15.4 100% 75.84 0.0
04 05:15 Calm 12.87 Fair CLR 15.8 15.8 100% 75.84 0.0
04 04:55 Calm 14.48 Fair CLR 16.5 16.5 100% 75.84 0.0
04 04:35 NE 7 14.48 Fair CLR 16.5 16.4 99% 75.82 0.0
04 04:15 SE 6 16.09 Mostly Cloudy BKN028 17.2 16.7 97% 75.82 0.0
04 03:55 SE 6 14.48 Overcast OVC027 17.4 16.9 97% 75.82 0.0
04 03:35 Calm 16.09 Overcast OVC027 17.5 16.9 96% 75.82 0.0
04 03:15 SE 9 16.09 Overcast OVC027 17.6 16.9 96% 75.82 0.0
04 02:35 E 6 16.09 Overcast OVC030 17.9 16.8 93% 75.82 0.0
04 02:15 SE 22 16.09 Overcast OVC032 17.7 16.6 93% 75.77 0.0
04 01:55 SE 17 16.09 Overcast FEW023 OVC035 17.5 16.3 93% 75.87 0.0
04 01:35 Vrbl 7 12.87 Light Rain Thunderstorm in Vicinity SCT012 BKN021 OVC036 17.5 16 91% 75.87 0.0
04 01:15 NW 17 14.48 Thunderstorm in Vicinity OVC011 17.3 15.9 92% 76.05 0.0
04 00:55 NE 20 G 31 16.09 Overcast OVC006 17 15.9 24.2 16.7 93% 75.92 0.0 0.25
04 00:35 N 20 16.09 Overcast OVC006 17 16.5 97% 75.9 0.0
04 00:15 E 13 16.09 Overcast OVC006 17 16.4 96% 75.79 0.0
03 23:55 E 15 16.09 Overcast OVC007 16.9 16.3 96% 75.82 0.0
03 23:35 E 17 16.09 Overcast OVC007 16.8 16.1 96% 75.82 0.0
03 23:15 E 11 16.09 Mostly Cloudy BKN008 16.7 16 96% 75.82 0.0
03 22:55 E 11 16.09 Fair CLR 16.7 16 96% 75.82 0.0
03 22:35 E 15 16.09 Partly Cloudy SCT042 16.9 16 94% 75.82 0.0
03 22:15 E 17 16.09 Overcast OVC040 17.2 16 93% 75.87 0.0
03 21:55 E 17 16.09 Mostly Cloudy BKN043 17.4 16.1 92% 75.84 0.0 0.25
03 21:35 E 13 16.09 Mostly Cloudy BKN043 BKN060 17.8 16.5 92% 75.84 0.0
03 21:15 NE 17 16.09 Mostly Cloudy FEW029 BKN046 18.2 16.7 91% 75.82 0.0
03 20:55 E 13 4.83 Rain Fog/Mist Thunderstorm in Vicinity FEW006 BKN033 OVC050 18.8 17.3 91% 75.82 0.0 0.25
03 20:35 E 13 6.44 Rain Thunderstorm in Vicinity BKN035 OVC055 20.1 16.9 82% 75.87 0.0 0.08
03 20:15 NE 15 16.09 Overcast SCT029 OVC036 22 15.4 66% 75.79 0.0
03 19:55 NE 19 14.48 Overcast FEW030 OVC036 22.2 16.6 71% 75.79 0.0
03 19:35 NE 13 14.48 Overcast BKN038 OVC047 22.7 17 70% 75.77 0.0
03 19:15 NE 13 14.48 Overcast BKN041 OVC050 23.6 18.1 71% 75.74 0.0
03 18:55 E 17 14.48 Overcast BKN044 OVC055 24.5 18.5 30.4 24.5 69% 25 75.69 0.0
03 18:35 E 13 14.48 Overcast BKN043 OVC055 25 19.1 70% 26 75.67 0.0
03 18:15 E 11 16.09 Overcast OVC043 25.6 19.6 70% 27 75.67 0.0
03 17:55 E 13 16.09 Overcast OVC045 26.1 20.2 70% 27 75.64 0.0
03 17:35 E 15 16.09 Overcast OVC047 26.8 20.1 67% 28 75.67 0.0
03 17:15 E 11 14.48 Mostly Cloudy BKN048 27.4 20.2 65% 29 75.64 0.0
03 16:55 E 15 16.09 Mostly Cloudy BKN045 28.4 20.4 62% 30 75.62 0.0
03 16:35 E 19 G 26 16.09 Mostly Cloudy BKN045 28.2 20.4 63% 30 75.59 0.0
03 16:15 E 17 16.09 A Few Clouds FEW044 28.8 20.6 61% 31 75.64 0.0
03 15:55 SE 15 16.09 Partly Cloudy SCT040 29.8 20.6 58% 32 75.64 0.0
03 15:35 E 19 16.09 Mostly Cloudy BKN040 29.9 20.6 57% 32 75.64 0.0
03 15:15 E 15 16.09 Partly Cloudy SCT040 30.1 21.3 59% 33 75.67 0.0
03 14:55 E 13 16.09 Fair CLR 28.6 20.7 62% 31 75.69 0.0
03 14:35 E 13 16.09 Fair CLR 27.9 20.5 64% 30 75.69 0.0
03 14:15 E 13 16.09 Fair CLR 28.9 20.7 61% 31 75.69 0.0
03 13:55 E 20 16.09 Fair CLR 28.6 20.2 60% 30 75.72 0.0
03 13:35 SE 19 16.09 Fair CLR 27.6 20.2 64% 29 75.74 0.0
03 13:15 E 17 16.09 A Few Clouds FEW034 28 20.3 63% 30 75.77 0.0
03 12:55 E 19 16.09 Mostly Cloudy BKN037 BKN070 27.5 19.7 27.7 16.4 63% 29 75.77 0.0
03 12:35 E 15 16.09 Overcast BKN037 BKN048 OVC060 27 19.7 64% 28 75.79 0.0
03 12:15 SE 11 16.09 Mostly Cloudy BKN047 27.3 19.6 63% 29 75.79 0.0
03 11:55 E 15 16.09 Partly Cloudy SCT048 26.3 18.8 63% 27 75.82 0.0
03 11:35 E 17 16.09 Fair CLR 25.7 18.3 64% 27 75.82 0.0
03 11:15 E 17 16.09 Fair CLR 26 18.1 62% 27 75.84 0.0
03 10:55 E 15 16.09 Fair CLR 25.2 17.6 63% 26 75.87 0.0
03 10:35 E 13 16.09 Fair CLR 24.4 17 63% 25 75.87 0.0
03 10:15 E 11 16.09 Fair CLR 23.8 16.8 65% 75.87 0.0
03 09:55 E 15 16.09 Fair CLR 22.3 16.1 68% 75.87 0.0
03 09:35 E 13 16.09 Fair CLR 21.8 16 70% 75.87 0.0
03 09:15 E 11 16.09 A Few Clouds FEW039 20.6 15.7 74% 75.9 0.0
03 08:55 E 7 16.09 Fair CLR 19.1 15.4 79% 75.92 0.0
03 08:35 E 13 16.09 A Few Clouds FEW035 18.3 15.4 83% 75.92 0.0
03 08:15 NE 11 14.48 Mostly Cloudy BKN034 17.6 15.3 86% 75.92 0.0
03 07:55 E 9 14.48 Overcast OVC028 17 15.1 89% 75.95 0.0
03 07:35 E 6 14.48 Overcast OVC028 16.7 15.1 90% 75.95 0.0
03 07:15 E 7 14.48 Overcast SCT028 BKN040 OVC060 16.5 14.9 90% 75.95 0.0
03 06:55 NE 6 14.48 Mostly Cloudy BKN035 BKN043 BKN050 16.2 15 16.7 14.7 93% 75.92 0.0
03 06:35 NE 6 14.48 Mostly Cloudy SCT033 BKN040 BKN050 16.1 14.9 93% 75.92 0.0
03 06:15 NE 6 16.09 Mostly Cloudy BKN043 BKN050 16.1 14.8 92% 75.92 0.0
03 05:55 NE 7 16.09 Overcast BKN039 OVC048 15.8 14.9 94% 75.92 0.0
03 05:35 Vrbl 6 16.09 Overcast BKN040 OVC049 16 14.8 93% 75.92 0.0
03 05:15 E 7 16.09 Overcast OVC039 15.9 14.8 93% 75.92 0.0
03 04:55 NE 6 16.09 Overcast BKN041 OVC050 15.6 14.6 94% 75.92 0.0
03 04:35 NE 6 16.09 Mostly Cloudy BKN042 15.3 14.4 94% 75.92 0.0
03 04:15 NE 6 16.09 Fair CLR 15.2 14.4 95% 75.92 0.0
03 03:55 E 7 16.09 Fair CLR 15.1 14.4 96% 75.9 0.0
03 03:35 Calm 16.09 Fair CLR 14.9 14.4 97% 75.92 0.0
03 03:15 Calm 14.48 Fair CLR 15.8 14.7 93% 75.92 0.0
03 02:55 E 6 16.09 Fair CLR 15.7 14.8 94% 75.92 0.0
03 02:35 NE 6 16.09 Fair CLR 15.9 15 94% 75.92 0.0
03 02:15 E 6 16.09 Fair CLR 16.1 15.1 94% 75.95 0.0
03 01:55 NE 6 14.48 Fair CLR 16.4 15.3 93% 75.95 0.0
03 01:35 NE 7 14.48 Fair CLR 16.4 15.4 94% 75.95 0.0
03 01:15 NE 7 16.09 Fair CLR 16.6 15.5 93% 75.97 0.0
03 00:55 E 6 16.09 A Few Clouds FEW090 16.9 15.5 23.8 16.8 92% 75.97 0.0
03 00:35 NE 7 16.09 Partly Cloudy SCT090 17 15.4 90% 75.97 0.0
03 00:15 NE 6 16.09 Mostly Cloudy BKN090 17.6 15.5 88% 75.97 0.0
02 23:55 E 7 16.09 A Few Clouds FEW090 18 15.6 86% 76 0.0
02 23:35 E 7 16.09 Fair CLR 18.5 15.5 83% 76 0.0
02 23:15 NE 6 16.09 Partly Cloudy SCT090 18.5 16 85% 76 0.0
02 22:55 NE 7 16.09 Overcast OVC090 18.3 16.7 90% 76 0.0
02 22:35 NE 6 16.09 Thunderstorm in Vicinity OVC090 17.1 16.5 96% 76 0.0
02 22:15 Calm 16.09 Thunderstorm in Vicinity BKN090 BKN110 17.5 16.4 93% 76.02 0.0
02 21:55 Calm 14.48 Partly Cloudy FEW090 SCT110 17 16.4 96% 76 0.0
02 21:35 Calm 14.48 Mostly Cloudy BKN095 BKN110 17.5 16.5 94% 76 0.0
02 21:15 Calm 16.09 Partly Cloudy FEW100 SCT120 17.3 16.5 95% 75.97 0.0
02 20:55 N 7 16.09 Partly Cloudy SCT120 17.2 16.5 96% 75.97 0.0
02 20:35 Calm 14.48 Fair CLR 17.4 16.6 95% 75.95 0.0
02 20:15 Calm 14.48 Fair CLR 17.8 17 95% 75.95 0.0
02 19:55 Calm 12.87 Light Rain CLR 19.6 17.5 88% 75.92 0.0
02 19:35 Calm 12.87 Fair CLR 20.4 17.6 84% 75.92 0.0
02 19:15 Calm 14.48 Fair CLR 22.5 18.7 79% 75.92 0.0
02 18:55 Calm 14.48 Fair CLR 24.8 16.6 27 24.8 60% 26 75.92 0.0
02 18:35 Calm 14.48 Fair CLR 25.8 14.5 50% 26 75.92 0.0
02 18:15 Calm 14.48 Fair CLR 26.6 12.7 42% 27 75.95 0.0
02 17:55 Calm 16.09 Fair CLR 26.4 12.8 43% 27 75.95 0.0
02 17:35 Calm 16.09 Fair CLR 26.7 12.4 41% 27 75.95 0.0
02 17:15 Calm 16.09 Fair CLR 26.7 11.5 39% 27 75.95 0.0
02 16:55 Calm 16.09 Fair CLR 26.7 12.2 41% 27 75.95 0.0
02 16:35 Vrbl 6 16.09 Fair CLR 26.6 12.3 41% 27 75.95 0.0
02 16:15 NW 7 16.09 Fair CLR 26.5 11.7 40% 27 75.95 0.0
02 15:55 Calm 16.09 Fair CLR 26.3 11.6 40% 26 75.97 0.0
02 15:35 Vrbl 6 16.09 Fair CLR 26.1 12.5 43% 26 75.97 0.0
02 15:15 W 6 16.09 Fair CLR 25.6 13.2 46% 26 75.97 0.0
02 14:55 Calm 16.09 Fair CLR 26 12.9 44% 26 75.97 0.0
02 14:35 Vrbl 7 16.09 Fair CLR 26.5 13.3 44% 27 76 0.0
02 14:15 W 6 16.09 Fair CLR 26.1 13.7 46% 27 76 0.0
02 13:55 SW 6 16.09 Fair CLR 26.3 13.4 45% 27 76.02 0.0
02 13:35 Calm 16.09 Fair CLR 25.5 13.8 48% 26 76 0.0
02 13:15 SW 9 16.09 Fair CLR 25.8 14 48% 26 76.02 0.0
02 12:55 Vrbl 9 16.09 Fair CLR 25.8 13.9 25.8 11.6 48% 26 76.02 0.0
Date Time (cdt) Wind (kph) Vis. (km) Weather Sky Cond. Air Dwpt Max. Min. Relative Humidity Wind Chill (°C) Heat Index (°C) altimeter (cm) sea level (mb) 1 hr 3 hr 6 hr
6 hour
Temperature (ºC) Pressure Precipitation (cm)